Time;durP1;ratioP1;P1;durP2;ratioP2;P2;SDS_P1;SDS_P2;PMS_P1;PMS_P2;Temp;Humidity;BMP_temperature;BMP_pressure;BME280_temperature;BME280_humidity;BME280_pressure;Samples;Min_cycle;Max_cycle;Signal;HPM_P1;HPM_P2
2022/11/30 00:00:36;;;;;;;17.73;8.77;;;6.40;99.90;;;;;;6183846;23;20321;-84
2022/11/30 00:03:02;;;;;;;15.98;8.25;;;7.60;99.90;;;;;;6184934;23;20020;-85
2022/11/30 00:05:28;;;;;;;18.48;8.63;;;6.70;99.90;;;;;;6185385;23;20352;-85
2022/11/30 00:07:54;;;;;;;22.30;8.73;;;6.70;99.90;;;;;;6184089;23;20055;-85
2022/11/30 00:10:20;;;;;;;20.58;9.90;;;6.10;99.90;;;;;;6158513;23;20021;-85
2022/11/30 00:12:46;;;;;;;23.42;10.18;;;6.70;99.90;;;;;;6185121;23;20009;-85
2022/11/30 00:15:15;;;;;;;21.08;10.00;;;6.70;99.90;;;;;;6184548;23;20478;-85
2022/11/30 00:17:45;;;;;;;18.73;8.40;;;7.00;99.90;;;;;;6158182;23;20036;-85
2022/11/30 00:20:12;;;;;;;21.45;9.25;;;6.90;99.90;;;;;;6185080;23;20017;-85
2022/11/30 00:22:38;;;;;;;21.95;9.55;;;6.60;99.90;;;;;;6185154;23;20344;-85
2022/11/30 00:25:04;;;;;;;22.63;8.90;;;7.40;99.90;;;;;;6158846;23;20024;-85
2022/11/30 00:27:31;;;;;;;21.92;8.75;;;6.60;99.90;;;;;;6185194;23;20013;-85
2022/11/30 00:29:58;;;;;;;20.77;8.68;;;7.50;99.90;;;;;;6158290;23;20028;-85
2022/11/30 00:32:25;;;;;;;18.30;8.13;;;6.60;99.90;;;;;;6184686;23;20013;-85
2022/11/30 00:34:51;;;;;;;17.38;7.57;;;7.40;99.90;;;;;;6184466;23;20039;-85
2022/11/30 00:37:16;;;;;;;20.00;8.88;;;7.00;99.90;;;;;;6185176;23;20456;-85
2022/11/30 00:39:42;;;;;;;18.80;7.93;;;7.50;99.90;;;;;;6185175;23;20080;-85
2022/11/30 00:42:08;;;;;;;18.85;8.05;;;7.40;99.90;;;;;;6158390;23;20021;-85
2022/11/30 00:44:33;;;;;;;22.40;8.05;;;6.60;99.90;;;;;;6158234;23;20100;-85
2022/11/30 00:46:59;;;;;;;23.88;9.50;;;7.00;99.90;;;;;;6158294;23;20103;-85
2022/11/30 00:49:25;;;;;;;20.63;8.80;;;5.30;99.90;;;;;;6185083;23;20043;-85
2022/11/30 00:51:51;;;;;;;19.45;8.38;;;7.40;99.90;;;;;;6185150;23;20017;-85
2022/11/30 00:54:17;;;;;;;17.85;7.60;;;5.80;99.90;;;;;;6186301;23;20017;-85
2022/11/30 00:56:42;;;;;;;18.98;7.88;;;5.70;99.90;;;;;;6186532;23;20100;-85
2022/11/30 00:59:08;;;;;;;22.95;8.52;;;6.70;99.90;;;;;;6160589;23;20028;-85
2022/11/30 01:01:34;;;;;;;17.77;8.02;;;7.40;99.90;;;;;;6187099;23;20067;-85
2022/11/30 01:04:00;;;;;;;23.02;8.23;;;7.40;99.90;;;;;;6186166;23;20348;-85
2022/11/30 01:06:27;;;;;;;16.25;7.40;;;7.80;99.90;;;;;;6160362;23;20017;-85
2022/11/30 01:08:53;;;;;;;20.10;8.55;;;6.50;99.90;;;;;;6160045;23;20024;-85
2022/11/30 01:11:29;;;;;;;19.35;8.18;;;7.30;99.90;;;;;;6186874;23;20074;-85
2022/11/30 01:13:57;;;;;;;20.48;8.63;;;7.30;99.90;;;;;;6186313;23;20459;-84
2022/11/30 01:16:29;;;;;;;19.05;8.55;;;6.80;99.90;;;;;;6186516;23;20145;-85
2022/11/30 01:18:54;;;;;;;18.67;7.93;;;6.50;99.90;;;;;;6160134;23;20016;-84
2022/11/30 01:21:23;;;;;;;17.58;8.30;;;6.90;99.90;;;;;;6186479;23;20099;-84
2022/11/30 01:23:49;;;;;;;16.98;7.85;;;7.30;99.90;;;;;;6186744;23;20032;-85
2022/11/30 01:26:16;;;;;;;21.17;7.85;;;6.60;99.90;;;;;;6159755;23;20020;-85
2022/11/30 01:28:43;;;;;;;16.05;7.13;;;5.60;99.90;;;;;;6186526;23;20414;-85
2022/11/30 01:31:12;;;;;;;22.95;11.10;;;7.00;99.90;;;;;;6186635;23;20013;-85
2022/11/30 01:33:39;;;;;;;24.02;10.32;;;6.60;99.90;;;;;;6186140;23;20032;-85
2022/11/30 01:36:17;;;;;;;27.00;11.50;;;6.90;99.90;;;;;;6185959;23;20024;-85
2022/11/30 01:38:51;;;;;;;23.95;10.50;;;6.60;99.90;;;;;;6159835;23;20040;-84
2022/11/30 01:41:25;;;;;;;29.45;11.80;;;7.30;99.90;;;;;;6159658;23;20009;-85
2022/11/30 01:43:55;;;;;;;28.02;12.82;;;7.30;99.90;;;;;;6186169;23;20070;-84
2022/11/30 01:46:33;;;;;;;24.27;10.57;;;7.30;99.90;;;;;;6159652;23;20025;-84
2022/11/30 01:49:05;;;;;;;21.45;10.38;;;6.60;99.90;;;;;;6159770;23;20037;-84
2022/11/30 01:51:46;;;;;;;28.02;12.27;;;7.00;99.90;;;;;;6159594;23;20021;-84
2022/11/30 01:54:16;;;;;;;29.10;13.05;;;6.50;99.90;;;;;;6186139;23;20021;-84
2022/11/30 01:56:47;;;;;;;26.55;13.68;;;7.10;99.90;;;;;;6186321;23;20341;-84
2022/11/30 01:59:14;;;;;;;28.38;12.25;;;6.50;99.90;;;;;;6185546;23;20021;-84
2022/11/30 02:01:40;;;;;;;26.98;12.02;;;6.60;99.90;;;;;;6159531;23;20059;-84
2022/11/30 02:04:34;;;;;;;22.55;10.98;;;7.50;99.90;;;;;;6185799;23;20017;-84
2022/11/30 02:07:01;;;;;;;26.00;11.38;;;6.50;99.90;;;;;;6181277;23;20013;-84
2022/11/30 02:09:28;;;;;;;20.50;9.38;;;6.80;99.90;;;;;;6185992;23;20017;-84
2022/11/30 02:11:55;;;;;;;26.17;11.80;;;7.30;99.90;;;;;;6186168;23;20013;-84
2022/11/30 02:14:29;;;;;;;22.95;10.00;;;6.90;99.90;;;;;;6158968;23;20031;-84
2022/11/30 02:17:09;;;;;;;18.42;8.85;;;6.50;99.90;;;;;;6186362;23;20325;-84
2022/11/30 02:19:49;;;;;;;20.70;9.45;;;6.50;99.90;;;;;;6186331;23;20439;-84
2022/11/30 02:22:43;;;;;;;21.65;10.50;;;6.50;99.90;;;;;;6159372;23;20345;-84
2022/11/30 02:25:27;;;;;;;18.35;8.45;;;6.50;99.90;;;;;;6185857;23;20019;-84
2022/11/30 02:28:31;;;;;;;16.67;8.00;;;6.50;99.90;;;;;;6186239;23;20376;-84
2022/11/30 02:30:59;;;;;;;16.75;7.30;;;6.50;99.90;;;;;;6185555;23;20464;-84
2022/11/30 02:33:28;;;;;;;15.60;7.22;;;6.90;99.90;;;;;;6159048;23;20020;-84
2022/11/30 02:35:56;;;;;;;28.13;12.50;;;6.90;99.90;;;;;;6185660;23;20017;-84
2022/11/30 02:38:24;;;;;;;19.58;9.52;;;7.30;99.90;;;;;;6185812;23;20016;-84
2022/11/30 02:40:50;;;;;;;18.65;8.95;;;7.50;99.90;;;;;;6185791;23;20375;-84
2022/11/30 02:43:17;;;;;;;22.17;9.18;;;6.00;99.90;;;;;;6185880;23;20017;-84
2022/11/30 02:45:54;;;;;;;19.80;8.90;;;6.60;99.90;;;;;;6185882;23;20017;-84
2022/11/30 02:48:28;;;;;;;18.77;8.63;;;6.40;99.90;;;;;;6185659;23;20013;-84
2022/11/30 02:51:01;;;;;;;17.15;8.55;;;6.10;99.90;;;;;;6185742;23;20530;-84
2022/11/30 02:53:27;;;;;;;14.23;7.45;;;7.00;99.90;;;;;;6159379;23;20435;-84
2022/11/30 02:55:53;;;;;;;17.10;7.80;;;6.50;99.90;;;;;;6185638;23;20023;-84
2022/11/30 02:58:20;;;;;;;13.65;6.97;;;7.00;99.90;;;;;;6158977;23;20049;-84
2022/11/30 03:00:46;;;;;;;16.73;7.57;;;6.50;99.90;;;;;;6185304;23;20025;-84
2022/11/30 03:03:12;;;;;;;17.15;8.13;;;7.20;99.90;;;;;;6185438;23;20028;-84
2022/11/30 03:05:37;;;;;;;15.15;7.63;;;6.50;99.90;;;;;;6185198;23;20020;-84
2022/11/30 03:08:03;;;;;;;14.68;7.93;;;6.50;99.90;;;;;;6159716;23;20017;-85
2022/11/30 03:10:29;;;;;;;15.57;8.13;;;6.50;99.90;;;;;;6185173;23;20387;-85
2022/11/30 03:12:58;;;;;;;15.73;8.40;;;6.50;99.90;;;;;;6185457;23;20005;-84
2022/11/30 03:15:24;;;;;;;14.68;7.55;;;6.70;99.90;;;;;;6185345;23;20321;-85
2022/11/30 03:17:50;;;;;;;16.58;8.13;;;5.60;99.90;;;;;;6184899;23;20032;-84
2022/11/30 03:20:16;;;;;;;18.13;7.97;;;6.20;99.90;;;;;;6184826;23;20009;-84
2022/11/30 03:22:41;;;;;;;15.82;7.18;;;6.50;99.90;;;;;;6158536;23;20021;-85
2022/11/30 03:25:08;;;;;;;20.00;9.50;;;7.10;99.90;;;;;;6185435;23;20020;-85
2022/11/30 03:27:33;;;;;;;16.92;8.02;;;6.50;99.90;;;;;;6185117;23;20073;-84
2022/11/30 03:29:59;;;;;;;14.93;7.25;;;6.00;99.90;;;;;;6185284;23;20060;-85
2022/11/30 03:32:25;;;;;;;14.60;7.55;;;7.40;99.90;;;;;;6185545;23;20384;-85
2022/11/30 03:34:50;;;;;;;15.00;7.53;;;6.50;99.90;;;;;;6158220;23;20063;-85
2022/11/30 03:37:16;;;;;;;19.40;7.47;;;6.90;99.90;;;;;;6185668;23;20104;-85
2022/11/30 03:39:42;;;;;;;15.18;7.10;;;6.50;99.90;;;;;;6158658;23;20393;-85
2022/11/30 03:42:07;;;;;;;14.73;7.53;;;6.90;99.90;;;;;;6185493;23;20017;-85
2022/11/30 03:44:33;;;;;;;16.23;7.88;;;7.20;99.90;;;;;;6185729;23;20017;-85
2022/11/30 03:46:59;;;;;;;16.52;7.25;;;6.00;99.90;;;;;;6185276;23;20016;-85
2022/11/30 03:49:24;;;;;;;14.30;7.45;;;7.20;99.90;;;;;;6184952;23;20013;-84
2022/11/30 03:51:50;;;;;;;20.20;9.68;;;6.60;99.90;;;;;;6185173;23;20017;-84
2022/11/30 03:54:16;;;;;;;19.52;9.52;;;5.70;99.90;;;;;;6158506;23;20021;-85
2022/11/30 03:56:41;;;;;;;17.90;9.18;;;7.40;99.90;;;;;;6185137;23;20013;-84
2022/11/30 03:59:07;;;;;;;19.52;8.55;;;6.40;99.90;;;;;;6185122;23;20025;-85
2022/11/30 04:01:33;;;;;;;18.77;9.00;;;7.00;99.90;;;;;;6159235;23;20013;-84
2022/11/30 04:03:58;;;;;;;21.15;9.90;;;7.10;99.90;;;;;;6184471;23;20021;-85
2022/11/30 04:06:24;;;;;;;22.85;9.52;;;6.50;99.90;;;;;;6158740;23;20329;-84
2022/11/30 04:08:49;;;;;;;19.05;8.52;;;6.80;99.90;;;;;;6184664;23;20009;-85
2022/11/30 04:11:16;;;;;;;19.95;9.05;;;7.40;99.90;;;;;;6185321;23;20013;-85
2022/11/30 04:13:42;;;;;;;18.85;8.77;;;6.90;99.90;;;;;;6185100;23;20340;-85
2022/11/30 04:19:48;;;;;;;21.70;9.70;;;6.40;99.90;;;;;;6184581;23;20020;-85
2022/11/30 04:22:14;;;;;;;23.38;9.82;;;6.80;99.90;;;;;;6184846;23;20435;-85
2022/11/30 04:24:40;;;;;;;25.10;10.13;;;6.60;99.90;;;;;;6184830;23;20051;-84
2022/11/30 04:27:05;;;;;;;20.40;8.82;;;7.10;99.90;;;;;;6184556;23;20009;-85
2022/11/30 04:29:31;;;;;;;18.00;8.60;;;6.70;99.90;;;;;;6185042;23;20013;-84
2022/11/30 04:31:57;;;;;;;20.98;8.68;;;6.90;99.90;;;;;;6158403;23;20021;-85
2022/11/30 04:34:22;;;;;;;17.80;8.13;;;6.40;99.90;;;;;;6184308;23;20027;-85
2022/11/30 04:36:48;;;;;;;20.38;8.32;;;6.40;99.90;;;;;;6185240;23;20017;-85
2022/11/30 04:39:13;;;;;;;24.38;8.77;;;7.00;99.90;;;;;;6184860;23;20055;-85
2022/11/30 04:41:39;;;;;;;17.65;7.07;;;6.60;99.90;;;;;;6185267;23;20328;-85
2022/11/30 04:44:05;;;;;;;17.35;7.13;;;7.30;99.90;;;;;;6184917;23;20075;-85
2022/11/30 04:46:30;;;;;;;18.60;7.82;;;6.80;99.90;;;;;;6185034;23;20010;-85
2022/11/30 04:48:56;;;;;;;17.98;6.80;;;6.80;99.90;;;;;;6158178;23;20025;-84
2022/11/30 04:51:22;;;;;;;20.02;7.82;;;5.90;99.90;;;;;;6158179;23;20017;-85
2022/11/30 04:53:47;;;;;;;19.88;7.22;;;7.30;99.90;;;;;;6184677;23;20032;-85
2022/11/30 04:56:13;;;;;;;25.77;9.13;;;6.40;99.90;;;;;;6184973;23;20071;-85
2022/11/30 04:58:39;;;;;;;17.35;8.15;;;7.30;99.90;;;;;;6184942;23;20024;-85
2022/11/30 05:01:05;;;;;;;21.92;9.73;;;6.50;99.90;;;;;;6184518;23;20013;-85
2022/11/30 05:03:31;;;;;;;23.77;8.98;;;6.80;99.90;;;;;;6184610;23;20068;-85
2022/11/30 05:05:57;;;;;;;19.35;8.18;;;6.30;99.90;;;;;;6158308;23;20020;-84
2022/11/30 05:08:23;;;;;;;19.92;8.32;;;6.70;99.90;;;;;;6158147;23;20013;-85
2022/11/30 05:10:53;;;;;;;22.05;7.68;;;6.00;99.90;;;;;;6184518;23;20017;-85
2022/11/30 05:13:19;;;;;;;22.88;8.55;;;6.80;99.90;;;;;;6184440;23;20021;-85
2022/11/30 05:15:45;;;;;;;20.80;8.32;;;7.00;99.90;;;;;;6185117;23;20021;-85
2022/11/30 05:18:11;;;;;;;18.80;7.93;;;5.60;99.90;;;;;;6184347;23;20096;-84
2022/11/30 05:20:37;;;;;;;19.58;7.82;;;7.10;99.90;;;;;;6184892;23;20063;-85
2022/11/30 05:23:02;;;;;;;18.70;8.45;;;6.30;99.90;;;;;;6184515;23;20379;-85
2022/11/30 05:25:28;;;;;;;22.55;8.65;;;6.70;99.90;;;;;;6158131;23;20020;-85
2022/11/30 05:27:53;;;;;;;21.08;8.07;;;6.40;99.90;;;;;;6184437;23;20028;-85
2022/11/30 05:30:19;;;;;;;21.63;8.60;;;7.20;99.90;;;;;;6184899;23;20013;-85
2022/11/30 05:32:45;;;;;;;20.70;8.50;;;6.20;99.90;;;;;;6158074;23;20107;-85
2022/11/30 05:35:11;;;;;;;20.42;8.30;;;6.20;99.90;;;;;;6157445;23;20017;-85
2022/11/30 05:37:36;;;;;;;21.48;8.70;;;6.10;99.90;;;;;;6185004;23;20049;-85
2022/11/30 05:40:03;;;;;;;21.52;8.23;;;6.20;99.90;;;;;;6159464;23;20333;-85
2022/11/30 05:42:28;;;;;;;22.17;8.07;;;6.20;99.90;;;;;;6186282;23;20057;-84
2022/11/30 05:44:57;;;;;;;22.90;8.30;;;6.70;99.90;;;;;;6186423;23;20017;-90
2022/11/30 05:47:22;;;;;;;22.50;8.52;;;5.30;99.90;;;;;;6186077;23;20021;-88
2022/11/30 05:49:48;;;;;;;24.08;10.65;;;7.00;99.90;;;;;;6160107;23;20020;-89
2022/11/30 05:52:14;;;;;;;23.85;10.00;;;6.70;99.90;;;;;;6159713;23;20087;-85
2022/11/30 05:54:39;;;;;;;33.03;10.13;;;6.90;99.90;;;;;;6185917;23;20024;-87
2022/11/30 05:57:05;;;;;;;24.85;10.05;;;6.60;99.90;;;;;;6159864;23;20021;-86
2022/11/30 05:59:31;;;;;;;23.77;9.48;;;6.90;99.90;;;;;;6186243;23;20044;-88
2022/11/30 06:01:57;;;;;;;21.58;8.65;;;6.10;99.90;;;;;;6159699;23;20083;-87
2022/11/30 06:04:22;;;;;;;24.77;9.98;;;6.50;99.90;;;;;;6159415;23;20341;-86
2022/11/30 06:06:49;;;;;;;25.40;9.18;;;6.90;99.90;;;;;;6159529;23;20017;-87
2022/11/30 06:09:15;;;;;;;19.80;8.23;;;6.70;99.90;;;;;;6159433;23;20024;-86
2022/11/30 06:11:41;;;;;;;24.23;8.48;;;7.00;99.90;;;;;;6134877;23;20429;-87
2022/11/30 06:14:06;;;;;;;19.42;7.82;;;6.00;99.90;;;;;;6159434;23;20444;-87
2022/11/30 06:16:32;;;;;;;18.25;8.45;;;6.80;99.90;;;;;;6159106;23;20282;-87
2022/11/30 06:18:58;;;;;;;18.55;8.20;;;6.00;99.90;;;;;;6135304;23;20032;-87
2022/11/30 06:21:23;;;;;;;20.73;8.57;;;6.50;99.90;;;;;;6159342;23;20024;-86
2022/11/30 06:23:49;;;;;;;16.83;6.40;;;6.00;99.90;;;;;;6159674;23;20025;-87
2022/11/30 06:26:15;;;;;;;19.65;8.02;;;6.70;99.90;;;;;;6159431;23;20013;-86
2022/11/30 06:28:40;;;;;;;15.55;6.65;;;6.80;99.90;;;;;;6185446;23;20024;-86
2022/11/30 06:31:07;;;;;;;20.90;8.38;;;6.00;99.90;;;;;;6185808;23;20013;-86
2022/11/30 06:33:33;;;;;;;18.67;7.60;;;5.20;99.90;;;;;;6159135;23;20048;-85
2022/11/30 06:35:59;;;;;;;16.65;6.68;;;6.10;99.90;;;;;;6159491;23;20025;-87
2022/11/30 06:38:25;;;;;;;12.32;6.00;;;5.10;99.90;;;;;;6185655;23;20017;-84
2022/11/30 06:40:52;;;;;;;17.50;8.77;;;6.80;99.90;;;;;;6159017;23;20025;-86
2022/11/30 06:43:18;;;;;;;18.70;7.47;;;6.80;99.90;;;;;;6185844;23;20025;-86
2022/11/30 06:45:45;;;;;;;18.77;7.78;;;6.50;99.90;;;;;;6185701;23;20072;-85
2022/11/30 06:48:12;;;;;;;17.25;7.47;;;5.90;99.90;;;;;;6185913;23;20017;-86
2022/11/30 06:50:38;;;;;;;15.75;7.05;;;6.90;99.90;;;;;;6185564;23;20101;-84
2022/11/30 06:53:03;;;;;;;16.95;7.38;;;6.90;99.90;;;;;;6185715;23;20387;-85
2022/11/30 06:55:31;;;;;;;15.60;5.95;;;6.00;99.90;;;;;;6185785;23;20017;-86
2022/11/30 06:58:07;;;;;;;14.02;6.93;;;6.30;99.90;;;;;;6184925;23;20017;-85
2022/11/30 07:00:33;;;;;;;12.82;6.75;;;6.80;99.90;;;;;;6134727;23;20068;-87
2022/11/30 07:02:59;;;;;;;18.17;6.30;;;5.90;99.90;;;;;;6185564;23;20083;-86
2022/11/30 07:05:24;;;;;;;17.20;7.57;;;6.90;99.90;;;;;;6185384;23;20388;-86
2022/11/30 07:07:50;;;;;;;16.73;7.22;;;6.20;99.90;;;;;;6159108;23;20017;-83
2022/11/30 07:10:16;;;;;;;15.77;7.13;;;6.00;99.90;;;;;;6184871;23;20139;-86
2022/11/30 07:12:41;;;;;;;12.90;6.22;;;5.90;99.90;;;;;;6185627;23;20024;-84
2022/11/30 07:15:08;;;;;;;15.68;6.55;;;6.50;99.90;;;;;;6158827;23;20083;-86
2022/11/30 07:17:33;;;;;;;15.35;6.10;;;5.90;99.90;;;;;;6185474;23;20024;-85
2022/11/30 07:19:59;;;;;;;11.07;5.03;;;6.90;99.90;;;;;;6184838;23;20068;-86
2022/11/30 07:22:25;;;;;;;13.68;5.15;;;5.90;99.90;;;;;;6185494;23;20009;-87
2022/11/30 07:27:34;;;;;;;9.60;5.05;;;6.00;99.90;;;;;;6159204;23;20032;-86
2022/11/30 07:30:00;;;;;;;12.55;5.20;;;5.90;99.90;;;;;;6185663;23;20013;-87
2022/11/30 07:32:26;;;;;;;10.07;5.63;;;5.90;99.90;;;;;;6185491;23;20075;-85
2022/11/30 07:34:51;;;;;;;10.43;5.22;;;6.00;99.90;;;;;;6184708;23;20385;-84
2022/11/30 07:37:17;;;;;;;10.07;4.65;;;5.90;99.90;;;;;;6159175;23;20017;-87
2022/11/30 07:39:43;;;;;;;13.20;6.03;;;5.90;99.90;;;;;;6185117;23;20055;-85
2022/11/30 07:42:08;;;;;;;10.95;5.78;;;6.40;99.90;;;;;;6185553;23;20013;-84
2022/11/30 07:44:34;;;;;;;11.55;5.25;;;5.90;99.90;;;;;;6158161;23;20060;-84
2022/11/30 07:47:00;;;;;;;15.93;7.03;;;5.90;99.90;;;;;;6185453;23;20020;-84
2022/11/30 07:49:26;;;;;;;15.13;6.68;;;5.90;99.90;;;;;;6158546;23;20025;-84
2022/11/30 07:51:51;;;;;;;10.43;5.22;;;6.10;99.90;;;;;;6184950;23;20436;-85
2022/11/30 07:54:17;;;;;;;16.27;7.07;;;6.00;99.90;;;;;;6158262;23;20025;-85
2022/11/30 07:56:43;;;;;;;13.20;5.75;;;5.90;99.90;;;;;;6184723;23;20020;-84
2022/11/30 07:59:08;;;;;;;10.27;5.32;;;5.30;99.90;;;;;;6184635;23;20013;-83
2022/11/30 08:01:34;;;;;;;12.68;5.57;;;6.20;99.90;;;;;;6158397;23;20478;-84
2022/11/30 08:04:00;;;;;;;13.27;5.55;;;4.60;99.90;;;;;;6158325;23;20387;-83
2022/11/30 08:06:28;;;;;;;12.55;5.72;;;6.40;99.90;;;;;;6184896;23;20066;-84
2022/11/30 08:08:56;;;;;;;13.00;5.90;;;5.80;99.90;;;;;;6184583;23;20454;-82
2022/11/30 08:11:24;;;;;;;10.65;5.05;;;6.40;99.90;;;;;;6158826;23;20476;-82
2022/11/30 08:13:51;;;;;;;11.75;6.03;;;5.50;99.90;;;;;;6184692;23;20048;-83
2022/11/30 08:16:19;;;;;;;11.13;5.07;;;6.40;99.90;;;;;;6184784;23;20052;-86
2022/11/30 08:18:46;;;;;;;10.70;5.40;;;6.30;99.90;;;;;;6185331;23;20017;-85
2022/11/30 08:21:14;;;;;;;11.63;5.15;;;5.90;99.90;;;;;;6158532;23;20028;-84
2022/11/30 08:23:43;;;;;;;10.18;4.70;;;6.10;99.90;;;;;;6158412;23;20024;-83
2022/11/30 08:26:15;;;;;;;11.48;4.80;;;6.50;99.90;;;;;;6184970;23;20020;-83
2022/11/30 08:28:42;;;;;;;10.70;5.10;;;6.80;99.90;;;;;;6158705;23;20021;-82
2022/11/30 08:31:13;;;;;;;9.55;4.70;;;6.00;99.90;;;;;;6158894;23;20444;-84
2022/11/30 08:33:39;;;;;;;10.77;4.80;;;5.70;99.90;;;;;;6183939;23;20013;-83
2022/11/30 08:36:09;;;;;;;10.77;4.68;;;6.80;99.90;;;;;;6184144;23;20009;-83
2022/11/30 08:38:35;;;;;;;10.10;4.90;;;6.00;99.90;;;;;;6158646;23;20087;-83
2022/11/30 08:41:01;;;;;;;10.73;4.95;;;6.50;99.90;;;;;;6185428;23;20024;-83
2022/11/30 08:43:27;;;;;;;11.32;6.22;;;6.50;99.90;;;;;;6158554;23;20033;-84
2022/11/30 08:45:53;;;;;;;13.20;6.20;;;6.50;99.90;;;;;;6185292;23;20027;-84
2022/11/30 08:48:19;;;;;;;15.85;6.65;;;6.10;99.90;;;;;;6185224;23;20044;-85
2022/11/30 08:50:44;;;;;;;13.20;5.53;;;6.00;99.90;;;;;;6184985;23;20048;-85
2022/11/30 08:53:10;;;;;;;14.55;5.97;;;6.80;99.90;;;;;;6185311;23;20016;-87
2022/11/30 08:55:36;;;;;;;16.33;6.60;;;6.20;99.90;;;;;;6158708;23;20013;-83
2022/11/30 08:58:01;;;;;;;15.18;6.10;;;7.10;99.90;;;;;;6185286;23;20017;-85
2022/11/30 09:00:27;;;;;;;12.90;6.38;;;5.90;99.90;;;;;;6184936;23;20017;-79
2022/11/30 09:02:53;;;;;;;14.00;7.10;;;7.10;99.90;;;;;;6184598;23;20017;-85
2022/11/30 09:05:18;;;;;;;12.68;6.47;;;6.30;99.90;;;;;;6184596;23;20108;-86
2022/11/30 09:07:44;;;;;;;20.80;8.27;;;6.20;99.90;;;;;;6185223;23;20076;-85
2022/11/30 09:10:10;;;;;;;17.15;7.43;;;6.20;99.90;;;;;;6184747;23;20352;-84
2022/11/30 09:12:37;;;;;;;21.15;9.38;;;6.20;99.90;;;;;;6185552;23;20348;-85
2022/11/30 09:15:05;;;;;;;20.80;7.78;;;6.70;99.90;;;;;;6187056;23;20120;-85
2022/11/30 09:17:30;;;;;;;15.55;7.57;;;6.30;99.90;;;;;;6187092;23;20371;-84
2022/11/30 09:19:56;;;;;;;21.88;9.18;;;6.30;99.90;;;;;;6186922;23;20012;-86
2022/11/30 09:22:22;;;;;;;18.95;8.15;;;6.80;99.90;;;;;;6186919;23;20027;-84
2022/11/30 09:24:47;;;;;;;16.75;6.95;;;6.40;99.90;;;;;;6186471;23;20348;-84
2022/11/30 09:27:13;;;;;;;19.73;8.35;;;6.80;99.90;;;;;;6186541;23;20017;-86
2022/11/30 09:29:39;;;;;;;18.50;8.00;;;6.10;99.90;;;;;;6187083;23;20400;-86
2022/11/30 09:32:05;;;;;;;27.92;10.52;;;6.90;99.90;;;;;;6186489;23;20021;-86
2022/11/30 09:34:31;;;;;;;23.67;9.60;;;6.50;99.90;;;;;;6186272;23;20340;-85
2022/11/30 09:36:57;;;;;;;23.58;10.18;;;7.10;99.90;;;;;;6187016;23;20023;-85
2022/11/30 09:39:23;;;;;;;30.08;11.27;;;6.60;99.90;;;;;;6186829;23;20044;-85
2022/11/30 09:42:06;;;;;;;27.33;11.18;;;6.50;99.90;;;;;;6186983;23;20359;-83
2022/11/30 09:44:50;;;;;;;24.00;10.30;;;6.50;99.90;;;;;;6186453;23;20017;-85
2022/11/30 09:47:32;;;;;;;32.17;13.27;;;6.60;99.90;;;;;;6160083;23;20095;-85
2022/11/30 09:50:21;;;;;;;28.80;11.88;;;6.40;99.90;;;;;;6159934;23;20025;-85
2022/11/30 09:52:52;;;;;;;24.25;10.93;;;6.60;99.90;;;;;;6186568;23;20024;-84
2022/11/30 09:55:25;;;;;;;28.08;11.40;;;7.00;99.90;;;;;;6186446;23;20025;-85
2022/11/30 09:57:54;;;;;;;24.42;11.00;;;6.60;99.90;;;;;;6186427;23;20165;-86
2022/11/30 10:00:24;;;;;;;26.27;11.52;;;6.70;99.90;;;;;;6186430;23;20096;-85
2022/11/30 10:02:56;;;;;;;31.52;11.35;;;6.70;99.90;;;;;;6159808;23;20052;-85
2022/11/30 10:05:42;;;;;;;24.00;11.60;;;6.70;99.90;;;;;;6186510;23;20336;-84
2022/11/30 10:08:43;;;;;;;28.02;12.65;;;6.70;99.90;;;;;;6186708;23;20376;-85
2022/11/30 10:11:42;;;;;;;23.65;11.00;;;6.70;99.90;;;;;;6037763;23;20023;-85
2022/11/30 10:14:32;;;;;;;27.80;12.32;;;6.70;99.90;;;;;;6037634;23;20490;-85
2022/11/30 10:17:15;;;;;;;24.48;9.93;;;6.90;99.90;;;;;;6037767;23;20058;-85
2022/11/30 10:19:55;;;;;;;27.20;11.65;;;7.20;99.90;;;;;;6037799;23;20019;-85
2022/11/30 10:22:28;;;;;;;24.08;10.50;;;6.70;99.90;;;;;;6037869;23;20143;-84
2022/11/30 10:25:13;;;;;;;22.83;10.32;;;5.50;99.90;;;;;;6037217;23;20486;-86
2022/11/30 10:27:49;;;;;;;28.37;11.47;;;6.70;99.90;;;;;;6038162;23;20080;-85
2022/11/30 10:30:21;;;;;;;28.55;11.27;;;7.50;99.90;;;;;;6014017;23;20019;-85
2022/11/30 10:32:51;;;;;;;29.50;12.73;;;7.60;99.90;;;;;;6014042;23;20027;-85
2022/11/30 10:35:39;;;;;;;28.73;11.73;;;7.00;99.90;;;;;;6037436;23;20019;-85
2022/11/30 10:38:28;;;;;;;31.67;12.55;;;7.60;99.90;;;;;;6037732;23;20019;-85
2022/11/30 10:41:14;;;;;;;29.00;12.80;;;6.70;99.90;;;;;;6037889;23;20079;-85
2022/11/30 10:43:57;;;;;;;23.85;11.55;;;6.70;99.90;;;;;;6037504;23;20019;-85
2022/11/30 10:46:35;;;;;;;25.52;11.07;;;7.30;99.90;;;;;;6016358;23;20019;-85
2022/11/30 10:49:07;;;;;;;22.10;9.77;;;6.80;99.90;;;;;;6186490;23;20336;-86
2022/11/30 10:51:39;;;;;;;21.83;9.82;;;5.50;99.90;;;;;;6186491;23;20035;-85
2022/11/30 10:54:16;;;;;;;24.55;11.90;;;7.40;99.90;;;;;;6186361;23;20021;-86
2022/11/30 10:56:41;;;;;;;21.73;9.68;;;6.90;99.90;;;;;;6185890;23;20024;-85
2022/11/30 10:59:47;;;;;;;22.05;10.35;;;6.10;99.90;;;;;;6186331;23;20025;-85
2022/11/30 11:02:41;;;;;;;20.15;9.15;;;6.90;99.90;;;;;;6159316;23;20021;-85
2022/11/30 11:05:16;;;;;;;27.25;12.15;;;7.00;99.90;;;;;;6013799;23;20023;-85
2022/11/30 11:07:59;;;;;;;20.70;10.67;;;7.10;99.90;;;;;;6013577;23;20023;-85
2022/11/30 11:10:34;;;;;;;25.33;11.52;;;7.10;99.90;;;;;;6037502;23;20024;-85
2022/11/30 11:13:00;;;;;;;24.47;11.10;;;7.00;99.90;;;;;;6037511;23;20313;-84
2022/11/30 11:15:31;;;;;;;30.55;14.00;;;7.00;99.90;;;;;;6037202;23;20272;-85
2022/11/30 11:18:19;;;;;;;28.92;13.13;;;7.80;99.90;;;;;;6037974;23;20019;-86
2022/11/30 11:20:44;;;;;;;27.20;11.55;;;7.00;99.90;;;;;;6037733;23;20023;-85
2022/11/30 11:23:38;;;;;;;25.00;10.05;;;7.00;99.90;;;;;;6037525;23;20063;-84
2022/11/30 11:26:06;;;;;;;25.50;11.55;;;7.60;99.90;;;;;;6037228;23;20023;-85
2022/11/30 11:28:34;;;;;;;23.90;10.55;;;7.40;99.90;;;;;;6013525;23;20054;-85
2022/11/30 11:31:14;;;;;;;25.02;11.82;;;6.80;99.90;;;;;;6037168;23;20019;-85
2022/11/30 11:33:49;;;;;;;30.45;13.50;;;6.30;99.90;;;;;;6037273;23;20444;-84
2022/11/30 11:36:25;;;;;;;31.25;12.65;;;6.80;99.90;;;;;;6012880;23;20359;-85
2022/11/30 11:38:50;;;;;;;25.52;11.90;;;7.30;99.90;;;;;;6037091;23;20019;-85
2022/11/30 11:41:34;;;;;;;30.08;12.55;;;7.20;99.90;;;;;;6039098;23;20116;-85
2022/11/30 11:44:09;;;;;;;26.38;10.30;;;6.80;99.90;;;;;;6185840;23;20017;-84
2022/11/30 11:46:50;;;;;;;21.33;9.93;;;6.50;99.90;;;;;;6159152;23;20028;-85
2022/11/30 11:49:25;;;;;;;26.13;10.93;;;5.90;99.90;;;;;;6159628;23;20013;-85
2022/11/30 11:52:03;;;;;;;25.58;11.32;;;6.80;99.90;;;;;;6159860;23;20016;-85
2022/11/30 11:54:38;;;;;;;25.75;10.02;;;7.00;99.90;;;;;;6185716;23;20021;-85
2022/11/30 11:57:09;;;;;;;24.65;11.00;;;6.80;99.90;;;;;;6159242;23;20024;-85
2022/11/30 11:59:57;;;;;;;23.50;10.15;;;6.40;99.90;;;;;;6159204;23;20021;-84
2022/11/30 12:02:26;;;;;;;21.30;10.60;;;6.70;99.90;;;;;;6185505;23;20096;-85
2022/11/30 12:05:00;;;;;;;24.20;9.98;;;6.80;99.90;;;;;;6185500;23;20467;-85
2022/11/30 12:07:49;;;;;;;24.75;11.40;;;7.50;99.90;;;;;;6159108;23;20096;-84
2022/11/30 12:10:33;;;;;;;30.75;14.40;;;6.80;99.90;;;;;;6185392;23;20017;-84
2022/11/30 12:12:59;;;;;;;32.25;13.25;;;6.80;99.90;;;;;;6185660;23;20016;-86
2022/11/30 12:15:40;;;;;;;28.73;12.27;;;6.80;99.90;;;;;;6185445;23;20028;-86
2022/11/30 12:18:17;;;;;;;30.33;11.93;;;6.80;99.90;;;;;;6185548;23;20013;-85
2022/11/30 12:20:51;;;;;;;31.80;12.80;;;6.60;99.90;;;;;;6185469;23;20017;-84
2022/11/30 12:23:23;;;;;;;27.88;11.88;;;6.80;99.90;;;;;;6185102;23;20510;-85
2022/11/30 12:26:09;;;;;;;34.13;13.88;;;6.70;99.90;;;;;;6158683;23;20021;-84
2022/11/30 12:29:12;;;;;;;35.80;14.32;;;6.70;99.90;;;;;;6159034;23;20016;-85
2022/11/30 12:31:54;;;;;;;30.23;13.68;;;6.80;99.90;;;;;;6036532;23;20083;-85
2022/11/30 12:34:31;;;;;;;31.83;13.90;;;7.00;99.90;;;;;;6012691;23;20027;-85
2022/11/30 12:37:10;;;;;;;31.13;13.70;;;6.80;99.90;;;;;;6036509;23;20027;-85
2022/11/30 12:39:47;;;;;;;29.80;13.75;;;6.80;99.90;;;;;;6036852;23;20019;-84
2022/11/30 12:42:41;;;;;;;31.48;12.98;;;6.80;99.90;;;;;;6036646;23;20509;-83
2022/11/30 12:45:24;;;;;;;30.92;14.02;;;6.90;99.90;;;;;;6036839;23;20026;-86
2022/11/30 12:47:55;;;;;;;31.15;15.60;;;6.80;99.90;;;;;;6013454;23;20142;-85
2022/11/30 12:50:39;;;;;;;30.35;13.60;;;7.30;99.90;;;;;;6014786;23;20019;-85
2022/11/30 12:53:04;;;;;;;35.15;14.45;;;6.80;99.90;;;;;;6038624;23;20063;-85
2022/11/30 12:56:12;;;;;;;35.58;14.75;;;7.60;99.90;;;;;;6014930;23;20110;-86
2022/11/30 12:59:06;;;;;;;37.47;15.65;;;6.80;99.90;;;;;;6038537;23;20378;-85
2022/11/30 13:01:55;;;;;;;41.65;17.63;;;6.80;99.90;;;;;;6038420;23;20025;-85
2022/11/30 13:04:28;;;;;;;39.47;16.17;;;6.80;99.90;;;;;;6014678;23;20027;-85